Time;durP1;ratioP1;P1;durP2;ratioP2;P2;SDS_P1;SDS_P2;PMS_P1;PMS_P2;Temp;Humidity;BMP_temperature;BMP_pressure;BME280_temperature;BME280_humidity;BME280_pressure;Samples;Min_cycle;Max_cycle;Signal;HPM_P1;HPM_P2
2023/07/17 00:01:38;;;;;;;3.13;2.10;;;22.90;99.90;;;;;;5134775;27;20076;-72
2023/07/17 00:04:04;;;;;;;3.53;2.10;;;22.90;99.90;;;;;;5116332;27;20389;-72
2023/07/17 00:06:30;;;;;;;3.03;2.38;;;22.90;99.90;;;;;;5135045;27;20020;-72
2023/07/17 00:08:55;;;;;;;3.17;2.42;;;22.80;99.90;;;;;;5135414;27;20028;-72
2023/07/17 00:11:21;;;;;;;4.15;2.38;;;22.80;99.90;;;;;;5134963;27;20030;-72
2023/07/17 00:13:47;;;;;;;3.35;2.25;;;22.80;99.90;;;;;;5134635;27;20037;-72
2023/07/17 00:16:12;;;;;;;3.17;2.40;;;22.80;99.90;;;;;;5134902;27;20032;-72
2023/07/17 00:18:38;;;;;;;3.42;2.40;;;22.80;99.90;;;;;;5134535;27;20024;-72
2023/07/17 00:21:04;;;;;;;3.30;2.40;;;22.80;99.90;;;;;;5134553;27;20027;-72
2023/07/17 00:23:31;;;;;;;3.20;2.30;;;22.80;99.90;;;;;;5134458;27;20110;-71
2023/07/17 00:25:57;;;;;;;3.78;2.60;;;22.80;99.90;;;;;;5134536;27;20069;-72
2023/07/17 00:28:23;;;;;;;3.00;1.95;;;22.80;99.90;;;;;;5134717;27;20425;-71
2023/07/17 00:30:49;;;;;;;2.83;2.15;;;22.80;99.90;;;;;;5134654;27;20058;-72
2023/07/17 00:33:14;;;;;;;3.80;2.47;;;22.80;99.90;;;;;;5116339;27;20031;-72
2023/07/17 00:35:40;;;;;;;3.35;2.40;;;22.80;99.90;;;;;;5134399;27;20080;-72
2023/07/17 00:38:06;;;;;;;3.22;2.25;;;22.80;99.90;;;;;;5115998;28;20023;-72
2023/07/17 00:40:32;;;;;;;3.33;2.53;;;22.70;99.90;;;;;;5134286;28;20032;-72
2023/07/17 00:42:59;;;;;;;4.18;2.42;;;22.60;99.90;;;;;;5134532;28;20468;-72
2023/07/17 00:45:26;;;;;;;3.13;2.08;;;22.60;99.90;;;;;;5143799;27;20027;-72
2023/07/17 00:47:52;;;;;;;3.28;2.45;;;22.60;99.90;;;;;;5155068;27;20066;-72
2023/07/17 00:50:18;;;;;;;3.50;2.55;;;22.50;99.90;;;;;;5136568;27;20066;-72
2023/07/17 00:52:44;;;;;;;3.95;2.70;;;22.50;99.90;;;;;;5156702;27;20026;-72
2023/07/17 00:55:12;;;;;;;3.50;2.75;;;22.40;99.90;;;;;;5159227;27;20114;-72
2023/07/17 00:57:39;;;;;;;3.85;2.78;;;22.20;99.90;;;;;;5159038;27;20027;-72
2023/07/17 01:00:08;;;;;;;3.83;3.00;;;22.10;99.90;;;;;;5159361;27;20034;-71
2023/07/17 01:02:34;;;;;;;3.67;2.70;;;22.00;99.90;;;;;;5158907;27;20023;-72
2023/07/17 01:04:59;;;;;;;4.10;2.50;;;21.90;99.90;;;;;;5133222;27;20025;-72
2023/07/17 01:07:25;;;;;;;3.28;2.47;;;21.80;99.90;;;;;;5137788;27;20027;-72
2023/07/17 01:09:52;;;;;;;3.53;2.47;;;21.80;99.90;;;;;;5137567;27;20031;-72
2023/07/17 01:12:18;;;;;;;3.63;2.17;;;21.90;99.90;;;;;;5136371;27;20434;-72
2023/07/17 01:14:43;;;;;;;3.63;2.30;;;21.90;99.90;;;;;;5112572;27;20034;-72
2023/07/17 01:17:09;;;;;;;2.92;2.55;;;21.90;99.90;;;;;;5128592;27;20023;-71
2023/07/17 01:19:34;;;;;;;3.33;2.65;;;21.80;99.90;;;;;;5137384;27;20031;-72
2023/07/17 01:22:13;;;;;;;3.97;2.47;;;21.80;99.90;;;;;;5137315;27;20031;-72
2023/07/17 01:24:39;;;;;;;3.13;2.30;;;21.80;99.90;;;;;;5118269;27;20027;-72
2023/07/17 01:27:05;;;;;;;3.45;2.42;;;21.90;99.90;;;;;;5136983;27;20027;-72
2023/07/17 01:29:30;;;;;;;3.20;2.47;;;21.90;99.90;;;;;;5137136;27;20389;-72
2023/07/17 01:31:56;;;;;;;2.80;2.22;;;22.00;99.90;;;;;;5137368;27;20024;-72
2023/07/17 01:34:22;;;;;;;3.60;2.42;;;22.00;99.90;;;;;;5137156;27;20110;-72
2023/07/17 01:36:47;;;;;;;3.70;2.50;;;22.00;99.90;;;;;;5137065;27;20111;-72
2023/07/17 01:39:13;;;;;;;4.40;2.83;;;21.90;99.90;;;;;;5135991;27;20027;-72
2023/07/17 01:41:39;;;;;;;4.05;2.80;;;21.80;99.90;;;;;;5136955;27;20023;-72
2023/07/17 01:44:04;;;;;;;3.53;2.70;;;21.80;99.90;;;;;;5137387;27;20438;-71
2023/07/17 01:46:30;;;;;;;3.25;2.72;;;21.70;99.90;;;;;;5137725;27;20031;-72
2023/07/17 01:48:56;;;;;;;4.70;2.75;;;21.50;99.90;;;;;;5137225;27;20122;-72
2023/07/17 01:51:22;;;;;;;3.80;2.70;;;21.50;99.90;;;;;;5137275;27;20111;-72
2023/07/17 01:53:47;;;;;;;3.97;2.63;;;21.40;99.90;;;;;;5137324;27;20110;-72
2023/07/17 01:56:13;;;;;;;3.45;2.70;;;21.50;99.90;;;;;;5137828;27;20035;-71
2023/07/17 01:58:39;;;;;;;4.35;2.80;;;21.50;99.90;;;;;;5137380;27;20485;-72
2023/07/17 02:01:04;;;;;;;3.10;2.72;;;21.50;99.90;;;;;;5118866;27;20063;-72
2023/07/17 02:03:31;;;;;;;3.53;2.80;;;21.60;99.90;;;;;;5136879;27;20046;-72
2023/07/17 02:05:57;;;;;;;3.45;2.92;;;21.60;99.90;;;;;;5137073;27;20511;-72
2023/07/17 02:08:22;;;;;;;4.10;2.83;;;21.70;99.90;;;;;;5137023;27;20110;-72
2023/07/17 02:10:49;;;;;;;3.40;2.90;;;21.60;99.90;;;;;;5136975;27;20035;-72
2023/07/17 02:13:15;;;;;;;3.55;2.60;;;21.60;99.90;;;;;;5136888;27;20036;-72
2023/07/17 02:15:41;;;;;;;3.50;2.70;;;21.60;99.90;;;;;;5136993;27;20028;-72
2023/07/17 02:18:07;;;;;;;3.65;2.80;;;21.50;99.90;;;;;;5137050;27;20076;-72
2023/07/17 02:20:32;;;;;;;3.35;2.60;;;21.50;99.90;;;;;;5136874;27;20023;-72
2023/07/17 02:22:58;;;;;;;4.20;2.65;;;21.50;99.90;;;;;;5118751;27;20028;-72
2023/07/17 02:25:24;;;;;;;4.57;2.75;;;21.40;99.90;;;;;;5136717;27;20039;-72
2023/07/17 02:27:49;;;;;;;3.90;2.78;;;21.30;99.90;;;;;;5118288;27;20035;-72
2023/07/17 02:30:15;;;;;;;4.85;3.00;;;21.10;99.90;;;;;;5136853;27;20114;-72
2023/07/17 02:32:41;;;;;;;3.88;2.70;;;21.00;99.90;;;;;;5137306;27;20042;-72
2023/07/17 02:35:07;;;;;;;4.38;2.60;;;20.80;99.90;;;;;;5136491;27;20036;-72
2023/07/17 02:37:32;;;;;;;3.78;2.90;;;20.80;99.90;;;;;;5136435;27;20023;-72
2023/07/17 02:39:58;;;;;;;3.53;2.55;;;20.70;99.90;;;;;;5101891;28;20566;-72
2023/07/17 02:42:24;;;;;;;3.22;2.60;;;20.70;99.90;;;;;;5115810;28;20432;-72
2023/07/17 02:44:49;;;;;;;3.50;2.58;;;20.80;99.90;;;;;;5098202;28;20028;-72
2023/07/17 02:47:17;;;;;;;4.43;2.67;;;20.80;99.90;;;;;;5116568;28;20036;-72
2023/07/17 02:49:43;;;;;;;4.30;2.80;;;20.80;99.90;;;;;;5115995;28;20037;-72
2023/07/17 02:52:09;;;;;;;4.15;2.75;;;20.80;99.90;;;;;;5116272;28;20376;-72
2023/07/17 02:54:37;;;;;;;3.78;3.03;;;20.70;99.90;;;;;;5115760;28;20027;-72
2023/07/17 02:57:04;;;;;;;3.58;2.90;;;20.60;99.90;;;;;;5115606;28;20059;-72
2023/07/17 02:59:30;;;;;;;4.20;2.92;;;20.50;99.90;;;;;;5115783;28;20378;-72
2023/07/17 03:01:56;;;;;;;4.68;2.60;;;20.40;99.90;;;;;;5115587;28;20020;-72
2023/07/17 03:04:22;;;;;;;3.50;2.50;;;20.30;99.90;;;;;;5115418;28;20027;-72
2023/07/17 03:06:48;;;;;;;3.90;3.00;;;20.30;99.90;;;;;;5115379;28;20392;-72
2023/07/17 03:09:14;;;;;;;3.78;3.05;;;20.30;99.90;;;;;;5127580;27;20123;-72
2023/07/17 03:11:39;;;;;;;4.65;2.55;;;20.30;99.90;;;;;;5117383;27;20061;-72
2023/07/17 03:14:05;;;;;;;4.10;2.80;;;20.30;99.90;;;;;;5135701;27;20027;-72
2023/07/17 03:16:31;;;;;;;3.15;2.50;;;20.20;99.90;;;;;;5135076;27;20042;-72
2023/07/17 03:18:57;;;;;;;4.05;2.83;;;20.20;99.90;;;;;;5135891;27;20037;-72
2023/07/17 03:21:22;;;;;;;4.45;3.03;;;20.20;99.90;;;;;;5135181;27;20054;-72
2023/07/17 03:23:48;;;;;;;3.30;2.95;;;20.30;99.90;;;;;;5117439;27;20023;-72
2023/07/17 03:26:14;;;;;;;3.55;2.80;;;20.30;99.90;;;;;;5135841;27;20023;-72
2023/07/17 03:28:40;;;;;;;5.13;2.90;;;20.30;99.90;;;;;;5135423;27;20369;-72
2023/07/17 03:31:07;;;;;;;4.50;3.17;;;20.20;99.90;;;;;;5135526;27;20030;-71
2023/07/17 03:33:33;;;;;;;4.78;3.08;;;20.20;99.90;;;;;;5135423;27;20028;-72
2023/07/17 03:35:59;;;;;;;4.00;3.05;;;20.00;99.90;;;;;;5135642;27;20028;-72
2023/07/17 03:38:25;;;;;;;4.60;3.15;;;19.90;99.90;;;;;;5135214;27;20034;-72
2023/07/17 03:40:50;;;;;;;5.68;3.00;;;19.70;99.90;;;;;;5135226;27;20484;-71
2023/07/17 03:43:16;;;;;;;5.80;3.20;;;19.60;99.90;;;;;;5135199;27;20447;-72
2023/07/17 03:45:42;;;;;;;5.25;3.30;;;19.50;99.90;;;;;;5116515;27;20366;-72
2023/07/17 03:48:07;;;;;;;4.15;3.45;;;19.50;99.90;;;;;;5135279;27;20078;-72
2023/07/17 03:50:33;;;;;;;3.60;2.90;;;19.40;99.90;;;;;;5135053;27;20039;-72
2023/07/17 03:52:59;;;;;;;5.70;3.47;;;19.30;99.90;;;;;;5135432;27;20080;-72
2023/07/17 03:55:24;;;;;;;5.13;3.33;;;19.30;99.90;;;;;;5134083;27;20030;-72
2023/07/17 03:57:50;;;;;;;4.55;3.50;;;19.20;99.90;;;;;;5133841;27;20115;-72
2023/07/17 04:00:16;;;;;;;4.50;3.47;;;19.20;99.90;;;;;;5134156;27;20019;-73
2023/07/17 04:02:42;;;;;;;6.18;2.95;;;19.10;99.90;;;;;;5134755;27;20027;-73
2023/07/17 04:05:09;;;;;;;3.58;2.97;;;19.10;99.90;;;;;;5134776;27;20023;-72
2023/07/17 04:07:34;;;;;;;4.97;3.13;;;19.20;99.90;;;;;;5135117;27;20084;-72
2023/07/17 04:10:00;;;;;;;3.47;2.67;;;19.30;99.90;;;;;;5134707;27;20431;-72
2023/07/17 04:12:26;;;;;;;3.92;3.08;;;19.40;99.90;;;;;;5134584;27;20488;-72
2023/07/17 04:14:51;;;;;;;3.85;3.17;;;19.40;99.90;;;;;;5134373;27;20442;-72
2023/07/17 04:17:17;;;;;;;7.00;3.80;;;19.50;99.90;;;;;;5133201;27;20396;-72
2023/07/17 04:19:43;;;;;;;6.53;3.50;;;19.40;99.90;;;;;;5134527;27;20072;-72
2023/07/17 04:22:09;;;;;;;4.85;3.22;;;19.40;99.90;;;;;;5134202;27;20035;-72
2023/07/17 04:24:35;;;;;;;7.05;3.92;;;19.40;99.90;;;;;;5133512;27;20023;-72
2023/07/17 04:27:00;;;;;;;6.00;3.90;;;19.50;99.90;;;;;;5133502;27;20019;-72
2023/07/17 04:29:26;;;;;;;6.40;4.63;;;19.50;99.90;;;;;;5134018;27;20091;-71
2023/07/17 04:31:52;;;;;;;6.55;4.20;;;19.50;99.90;;;;;;5134087;27;20020;-72
2023/07/17 04:34:18;;;;;;;5.63;4.20;;;19.50;99.90;;;;;;5114997;27;20507;-72
2023/07/17 04:36:43;;;;;;;5.13;3.60;;;19.60;99.90;;;;;;5140399;27;20019;-72
2023/07/17 04:39:09;;;;;;;3.92;3.15;;;19.60;99.90;;;;;;5154325;27;20087;-72
2023/07/17 04:41:35;;;;;;;4.75;3.60;;;19.60;99.90;;;;;;5154376;27;20023;-72
2023/07/17 04:44:00;;;;;;;4.15;3.15;;;19.60;99.90;;;;;;5154887;27;20023;-72
2023/07/17 04:46:26;;;;;;;4.80;3.50;;;19.60;99.90;;;;;;5136464;27;20471;-72
2023/07/17 04:48:52;;;;;;;4.53;3.35;;;19.60;99.90;;;;;;5154666;27;20118;-72
2023/07/17 04:51:17;;;;;;;5.95;3.90;;;19.60;99.90;;;;;;5154798;27;20122;-72
2023/07/17 04:53:43;;;;;;;5.00;3.50;;;19.70;99.90;;;;;;5154894;27;20046;-72
2023/07/17 04:56:09;;;;;;;4.93;3.63;;;19.70;99.90;;;;;;5155464;27;20033;-72
2023/07/17 04:58:35;;;;;;;4.97;3.35;;;19.80;99.90;;;;;;5154799;27;20444;-72
2023/07/17 05:01:01;;;;;;;4.43;3.63;;;19.90;99.90;;;;;;5154859;27;20022;-72
2023/07/17 05:03:27;;;;;;;4.47;3.63;;;19.90;99.90;;;;;;5154766;27;20132;-72
2023/07/17 05:05:54;;;;;;;4.90;3.15;;;20.00;99.90;;;;;;5155087;27;20027;-72
2023/07/17 05:08:20;;;;;;;4.22;3.45;;;20.10;99.90;;;;;;5153414;27;20045;-72
2023/07/17 05:11:04;;;;;;;4.80;3.40;;;20.10;99.90;;;;;;5133971;28;20480;-72
2023/07/17 05:13:30;;;;;;;6.50;3.90;;;20.20;99.90;;;;;;5132548;28;20030;-72
2023/07/17 05:15:56;;;;;;;4.63;3.63;;;20.30;99.90;;;;;;5131852;28;20016;-72
2023/07/17 05:18:22;;;;;;;4.47;3.47;;;20.30;99.90;;;;;;5132812;28;20112;-72
2023/07/17 05:20:50;;;;;;;4.50;3.25;;;20.40;99.90;;;;;;5133818;28;20055;-72
2023/07/17 05:23:16;;;;;;;4.45;3.17;;;20.40;99.90;;;;;;5133896;28;20055;-72
2023/07/17 05:25:54;;;;;;;5.15;3.50;;;20.50;99.90;;;;;;5134194;28;20039;-72
2023/07/17 05:28:20;;;;;;;4.20;3.50;;;20.50;99.90;;;;;;5115157;28;20473;-72
2023/07/17 05:30:49;;;;;;;5.28;3.40;;;20.50;99.90;;;;;;5134295;28;20031;-72
2023/07/17 05:33:15;;;;;;;3.90;3.33;;;20.60;99.90;;;;;;5133758;28;20031;-72
2023/07/17 05:35:40;;;;;;;4.93;3.47;;;20.60;99.90;;;;;;5134093;28;20114;-72
2023/07/17 05:38:06;;;;;;;6.90;3.33;;;20.60;99.90;;;;;;5134387;27;20030;-72
2023/07/17 05:40:35;;;;;;;4.82;3.25;;;20.70;99.90;;;;;;5119610;27;20027;-72
2023/07/17 05:43:00;;;;;;;4.85;3.20;;;20.70;99.90;;;;;;5137586;27;20020;-72
2023/07/17 05:45:26;;;;;;;3.60;3.05;;;20.70;99.90;;;;;;5137561;27;20034;-72
2023/07/17 05:47:52;;;;;;;4.22;3.28;;;20.70;99.90;;;;;;5137532;27;20489;-72
2023/07/17 05:50:19;;;;;;;5.53;3.70;;;20.70;99.90;;;;;;5119121;27;20489;-73
2023/07/17 05:52:44;;;;;;;4.53;3.53;;;20.80;99.90;;;;;;5137335;27;20096;-72
2023/07/17 05:55:10;;;;;;;4.45;3.42;;;20.80;99.90;;;;;;5137307;27;20095;-73
2023/07/17 05:57:36;;;;;;;4.38;3.08;;;20.80;99.90;;;;;;5137245;27;20042;-72
2023/07/17 06:00:03;;;;;;;4.93;4.20;;;20.80;99.90;;;;;;5137771;27;20373;-72
2023/07/17 06:02:29;;;;;;;5.45;4.38;;;20.80;99.90;;;;;;5136992;27;20034;-72
2023/07/17 06:04:55;;;;;;;4.57;4.03;;;20.80;99.90;;;;;;5137661;27;20027;-72
2023/07/17 06:07:21;;;;;;;4.82;3.67;;;20.80;99.90;;;;;;5137084;27;20034;-72
2023/07/17 06:09:46;;;;;;;5.13;3.42;;;20.70;99.90;;;;;;5118906;27;20055;-72
2023/07/17 06:12:12;;;;;;;5.18;3.63;;;20.80;99.90;;;;;;5137112;27;20039;-72
2023/07/17 06:14:38;;;;;;;5.68;3.97;;;20.80;99.90;;;;;;5136927;27;20459;-72
2023/07/17 06:17:03;;;;;;;5.20;3.55;;;20.70;99.90;;;;;;5136850;27;20032;-72
2023/07/17 06:19:29;;;;;;;5.80;3.72;;;20.70;99.90;;;;;;5136833;27;20023;-72
2023/07/17 06:21:55;;;;;;;4.53;3.88;;;20.80;99.90;;;;;;5136766;27;20030;-72
2023/07/17 06:24:20;;;;;;;4.55;3.80;;;20.70;99.90;;;;;;5136794;27;20107;-72
2023/07/17 06:26:46;;;;;;;5.70;4.00;;;20.80;99.90;;;;;;5136702;27;20023;-72
2023/07/17 06:29:12;;;;;;;4.32;3.58;;;20.80;99.90;;;;;;5153891;27;20047;-72
2023/07/17 06:31:37;;;;;;;5.60;3.80;;;20.80;99.90;;;;;;5157323;27;20392;-72
2023/07/17 06:34:03;;;;;;;4.72;3.75;;;20.80;99.90;;;;;;5157331;27;20485;-72
2023/07/17 06:36:32;;;;;;;4.53;3.75;;;20.80;99.90;;;;;;5157279;27;20107;-72
2023/07/17 06:38:58;;;;;;;7.22;4.32;;;20.80;99.90;;;;;;5157126;27;20035;-72
2023/07/17 06:41:23;;;;;;;4.65;4.03;;;20.80;99.90;;;;;;5157386;27;20532;-72
2023/07/17 06:43:49;;;;;;;4.45;3.40;;;20.80;99.90;;;;;;5157141;27;20023;-72
2023/07/17 06:46:16;;;;;;;7.75;3.70;;;20.80;99.90;;;;;;5138588;27;20480;-72
2023/07/17 06:48:42;;;;;;;4.80;3.20;;;20.90;99.90;;;;;;5157100;27;20515;-72
2023/07/17 06:51:08;;;;;;;4.80;3.40;;;20.90;99.90;;;;;;5155892;27;20041;-72
2023/07/17 06:53:34;;;;;;;3.85;2.78;;;20.90;99.90;;;;;;5156961;27;20546;-72
2023/07/17 06:56:00;;;;;;;3.90;2.58;;;20.90;99.90;;;;;;5157020;27;20030;-72
2023/07/17 06:58:26;;;;;;;2.50;2.10;;;20.90;99.90;;;;;;5157063;27;20027;-72
2023/07/17 07:00:59;;;;;;;3.35;2.30;;;20.90;99.90;;;;;;5153987;27;20042;-73
2023/07/17 07:03:26;;;;;;;3.28;2.20;;;21.00;99.90;;;;;;5136029;27;20401;-73
2023/07/17 07:05:56;;;;;;;2.40;2.00;;;21.00;99.90;;;;;;5117590;27;20111;-73
2023/07/17 07:08:24;;;;;;;2.45;1.90;;;21.00;99.90;;;;;;5135951;27;20035;-73
2023/07/17 07:10:52;;;;;;;3.88;1.80;;;21.00;99.90;;;;;;5135858;27;20053;-73
2023/07/17 07:13:18;;;;;;;2.17;1.20;;;20.90;99.90;;;;;;5135837;27;20023;-72
2023/07/17 07:15:43;;;;;;;2.65;1.50;;;20.90;99.90;;;;;;5118064;27;20372;-72
2023/07/17 07:18:09;;;;;;;1.60;1.20;;;20.90;99.90;;;;;;5136189;27;20023;-73
2023/07/17 07:20:35;;;;;;;1.98;1.38;;;20.90;99.90;;;;;;5135896;27;20019;-73
2023/07/17 07:23:00;;;;;;;2.50;1.58;;;20.80;99.90;;;;;;5135513;27;20026;-72
2023/07/17 07:25:26;;;;;;;3.45;1.58;;;20.70;99.90;;;;;;5135439;27;20027;-70
2023/07/17 07:27:52;;;;;;;7.15;2.60;;;20.70;99.90;;;;;;5135722;27;20053;-71
2023/07/17 07:30:17;;;;;;;4.00;1.77;;;20.50;99.90;;;;;;5135459;27;20055;-72
2023/07/17 07:32:43;;;;;;;3.53;1.95;;;20.30;99.90;;;;;;5117172;27;20516;-72
2023/07/17 07:35:09;;;;;;;3.35;1.40;;;20.10;99.90;;;;;;5127263;27;20393;-72
2023/07/17 07:37:36;;;;;;;2.40;1.63;;;20.10;99.90;;;;;;5114770;27;20034;-72
2023/07/17 07:40:03;;;;;;;2.17;1.48;;;20.10;99.90;;;;;;5114866;27;20076;-72
2023/07/17 07:42:28;;;;;;;3.65;1.50;;;20.00;99.90;;;;;;5133277;27;20472;-72
2023/07/17 07:44:55;;;;;;;1.90;1.20;;;20.10;99.90;;;;;;5134642;27;20042;-72
2023/07/17 07:47:20;;;;;;;2.15;1.10;;;20.10;99.90;;;;;;5134512;27;20545;-73
2023/07/17 07:49:46;;;;;;;2.13;1.00;;;20.00;99.90;;;;;;5134600;27;20039;-72
2023/07/17 07:52:11;;;;;;;1.75;0.90;;;20.00;99.90;;;;;;5134396;27;20027;-71
2023/07/17 07:54:37;;;;;;;1.45;0.80;;;20.00;99.90;;;;;;5134114;27;20047;-72
2023/07/17 07:57:03;;;;;;;1.13;0.80;;;20.00;99.90;;;;;;5098982;27;20027;-72
2023/07/17 07:59:29;;;;;;;1.48;0.80;;;20.00;99.90;;;;;;5116186;27;20023;-72
2023/07/17 08:01:54;;;;;;;2.90;1.00;;;20.00;99.90;;;;;;5134061;27;20114;-72
2023/07/17 08:04:20;;;;;;;1.92;1.00;;;20.00;99.90;;;;;;5114432;28;20080;-72
2023/07/17 08:06:45;;;;;;;2.78;0.93;;;20.00;99.90;;;;;;5096308;28;20478;-72
2023/07/17 08:09:11;;;;;;;2.35;1.00;;;20.10;99.90;;;;;;5114763;27;20486;-72
2023/07/17 08:11:38;;;;;;;2.00;0.90;;;20.10;99.90;;;;;;5126008;27;20029;-72
2023/07/17 08:14:03;;;;;;;1.40;0.70;;;20.10;99.90;;;;;;5134079;27;20100;-72
2023/07/17 08:16:29;;;;;;;1.35;0.80;;;20.20;99.90;;;;;;5134021;27;20374;-72
2023/07/17 08:18:55;;;;;;;1.95;1.02;;;20.20;99.90;;;;;;5134029;27;20035;-72
2023/07/17 08:21:20;;;;;;;2.10;0.93;;;20.30;99.90;;;;;;5133879;27;20072;-72
2023/07/17 08:23:46;;;;;;;3.38;0.90;;;20.40;99.90;;;;;;5133944;27;20105;-72
2023/07/17 08:26:12;;;;;;;1.80;0.93;;;20.40;99.90;;;;;;5133763;27;20114;-72
2023/07/17 08:28:37;;;;;;;2.28;0.88;;;20.50;99.90;;;;;;5133896;27;20111;-72
2023/07/17 08:31:03;;;;;;;1.92;1.08;;;20.60;99.90;;;;;;5133874;27;20610;-72
2023/07/17 08:33:29;;;;;;;1.83;1.00;;;20.60;99.90;;;;;;5115806;27;20549;-72
2023/07/17 08:35:55;;;;;;;2.40;1.13;;;20.70;99.90;;;;;;5130157;27;20111;-72
2023/07/17 08:38:20;;;;;;;1.83;1.00;;;20.80;99.90;;;;;;5095798;28;20038;-72
2023/07/17 08:40:52;;;;;;;2.25;1.38;;;20.90;99.90;;;;;;5100340;28;20024;-72
2023/07/17 08:43:17;;;;;;;1.60;1.08;;;21.00;99.90;;;;;;5133679;28;20023;-72
2023/07/17 08:45:45;;;;;;;1.98;0.90;;;21.10;99.90;;;;;;5115350;28;20098;-72
2023/07/17 08:48:12;;;;;;;2.97;1.00;;;21.20;99.90;;;;;;5133552;28;20404;-72
2023/07/17 08:50:39;;;;;;;2.33;1.15;;;21.40;99.90;;;;;;5115240;28;20027;-72
2023/07/17 08:53:07;;;;;;;3.38;1.40;;;21.60;99.90;;;;;;5133463;28;20501;-72
2023/07/17 08:55:33;;;;;;;2.78;1.20;;;21.60;99.90;;;;;;5133468;28;20031;-72
2023/07/17 08:58:03;;;;;;;1.65;1.10;;;21.60;99.90;;;;;;5133480;28;20023;-72
2023/07/17 09:00:30;;;;;;;1.98;1.17;;;21.60;99.90;;;;;;5133510;28;20027;-72
2023/07/17 09:02:56;;;;;;;2.13;1.30;;;21.70;99.90;;;;;;5133339;28;20019;-72
2023/07/17 09:05:21;;;;;;;2.53;1.20;;;21.80;99.90;;;;;;5134055;28;20574;-72
2023/07/17 09:07:50;;;;;;;2.38;1.10;;;22.00;99.90;;;;;;5134084;28;20114;-72
2023/07/17 09:10:21;;;;;;;2.50;1.67;;;22.20;99.90;;;;;;5134672;28;20027;-72
2023/07/17 09:12:51;;;;;;;1.77;1.30;;;22.40;99.90;;;;;;5134201;27;20477;-72
2023/07/17 09:15:17;;;;;;;;;;;22.60;99.90;;;;;;5138679;27;20511;-72
2023/07/17 09:17:44;;;;;;;2.00;1.13;;;22.70;99.90;;;;;;5138012;27;19911;-72
2023/07/17 09:20:11;;;;;;;2.10;1.20;;;22.90;99.90;;;;;;5138041;27;20023;-72
2023/07/17 09:22:41;;;;;;;1.85;0.90;;;23.10;99.90;;;;;;5137911;27;20477;-72
2023/07/17 09:25:08;;;;;;;1.50;1.00;;;23.30;99.90;;;;;;5137971;27;20027;-72
2023/07/17 09:27:50;;;;;;;1.65;1.05;;;23.20;99.90;;;;;;5137595;27;20063;-72
2023/07/17 09:30:19;;;;;;;2.03;0.93;;;23.20;99.90;;;;;;5137532;27;20031;-72
2023/07/17 09:32:47;;;;;;;1.95;1.08;;;23.30;99.90;;;;;;5137699;27;20030;-72
2023/07/17 09:35:13;;;;;;;1.80;0.98;;;23.50;99.90;;;;;;5138039;27;20041;-72
2023/07/17 09:37:43;;;;;;;1.30;0.70;;;23.70;99.90;;;;;;5137892;27;20039;-72
2023/07/17 09:40:14;;;;;;;2.78;1.33;;;23.90;99.90;;;;;;5137732;27;20499;-72
2023/07/17 09:43:07;;;;;;;1.83;1.13;;;24.10;99.90;;;;;;5119271;27;20030;-72
2023/07/17 09:45:33;;;;;;;2.55;1.10;;;24.30;99.90;;;;;;5133436;27;20035;-72
2023/07/17 09:48:00;;;;;;;2.17;1.25;;;24.40;99.90;;;;;;5137419;27;20173;-72
2023/07/17 09:50:26;;;;;;;1.58;1.10;;;24.50;99.90;;;;;;5137413;27;20023;-72
2023/07/17 09:52:53;;;;;;;2.17;1.10;;;24.50;99.90;;;;;;5119968;27;20032;-72
2023/07/17 09:55:26;;;;;;;1.63;1.10;;;24.50;99.90;;;;;;5137375;27;20536;-72
2023/07/17 09:57:57;;;;;;;1.75;1.00;;;24.60;99.90;;;;;;5137515;27;20023;-72
2023/07/17 10:00:24;;;;;;;2.53;1.38;;;24.60;99.90;;;;;;5137411;27;20433;-73
2023/07/17 10:03:00;;;;;;;1.63;1.17;;;24.70;99.90;;;;;;5137115;27;20019;-73
2023/07/17 10:05:27;;;;;;;1.92;1.05;;;24.80;99.90;;;;;;5137166;27;20031;-73
2023/07/17 10:07:54;;;;;;;2.67;1.33;;;24.90;99.90;;;;;;5137144;27;20033;-73
2023/07/17 10:10:20;;;;;;;1.50;1.00;;;24.90;99.90;;;;;;5136991;27;20027;-72
2023/07/17 10:12:47;;;;;;;3.88;1.58;;;25.00;99.90;;;;;;5137250;27;20102;-73
2023/07/17 10:15:14;;;;;;;2.60;1.20;;;25.10;99.90;;;;;;5136961;27;20497;-73
2023/07/17 10:17:40;;;;;;;2.53;1.27;;;25.20;99.90;;;;;;5136882;27;20066;-73
2023/07/17 10:20:08;;;;;;;2.05;1.20;;;25.20;99.90;;;;;;5136825;27;20038;-73
2023/07/17 10:22:43;;;;;;;1.90;1.20;;;25.40;99.90;;;;;;5137189;27;20019;-74
2023/07/17 10:25:29;;;;;;;1.70;1.13;;;25.40;99.90;;;;;;5137290;27;20015;-74
2023/07/17 10:28:00;;;;;;;2.58;1.10;;;25.30;99.90;;;;;;5136696;27;20031;-74
2023/07/17 10:30:35;;;;;;;1.85;1.10;;;25.20;99.90;;;;;;5136787;27;20489;-74
2023/07/17 10:33:12;;;;;;;2.35;1.40;;;25.30;99.90;;;;;;5136611;27;20027;-74
2023/07/17 10:35:57;;;;;;;3.42;1.15;;;25.40;99.90;;;;;;5136619;27;20019;-74
2023/07/17 10:38:31;;;;;;;2.45;1.23;;;25.40;99.90;;;;;;5145703;27;20480;-74
2023/07/17 10:41:05;;;;;;;2.28;1.38;;;25.50;99.90;;;;;;5157971;27;20019;-74
2023/07/17 10:43:36;;;;;;;3.13;1.33;;;25.60;99.90;;;;;;5157298;27;20027;-74
2023/07/17 10:46:10;;;;;;;2.30;1.20;;;25.70;99.90;;;;;;5157573;27;20019;-73
2023/07/17 10:48:36;;;;;;;2.22;1.50;;;25.80;99.90;;;;;;5144254;27;20045;-74
2023/07/17 10:51:02;;;;;;;2.03;1.40;;;25.90;99.90;;;;;;5135999;27;20556;-74
2023/07/17 10:53:28;;;;;;;2.00;1.33;;;26.00;99.90;;;;;;5136371;27;20058;-74
2023/07/17 10:55:53;;;;;;;3.60;1.50;;;26.20;99.90;;;;;;5136123;27;20034;-74
2023/07/17 10:58:20;;;;;;;2.40;1.52;;;26.20;99.90;;;;;;5136035;27;20031;-74
2023/07/17 11:00:47;;;;;;;2.45;1.48;;;26.30;99.90;;;;;;5136229;27;20443;-74
2023/07/17 11:03:17;;;;;;;2.33;1.70;;;26.30;99.90;;;;;;5117393;27;20031;-74
2023/07/17 11:05:45;;;;;;;3.40;1.75;;;26.30;99.90;;;;;;5136413;27;20045;-74
2023/07/17 11:08:14;;;;;;;3.40;1.67;;;26.40;99.90;;;;;;5135957;27;20035;-74
2023/07/17 11:10:44;;;;;;;3.13;1.60;;;26.40;99.90;;;;;;5136712;27;20376;-74
2023/07/17 11:13:10;;;;;;;2.25;1.83;;;26.50;99.90;;;;;;5117324;27;20019;-74
2023/07/17 11:15:37;;;;;;;2.40;1.50;;;26.60;99.90;;;;;;5136124;27;20034;-74
2023/07/17 11:18:04;;;;;;;2.20;1.48;;;26.80;99.90;;;;;;5135969;27;20031;-74
2023/07/17 11:20:31;;;;;;;2.60;1.60;;;26.80;99.40;;;;;;5135764;27;20138;-74
2023/07/17 11:22:57;;;;;;;2.22;1.42;;;26.90;99.80;;;;;;5135654;27;20031;-74
2023/07/17 11:25:28;;;;;;;2.28;1.67;;;26.90;99.50;;;;;;5135740;27;20098;-74
2023/07/17 11:27:56;;;;;;;2.83;1.88;;;27.00;99.10;;;;;;5135287;27;20015;-74
2023/07/17 11:30:32;;;;;;;2.67;1.70;;;27.00;99.00;;;;;;5114937;28;20031;-74
2023/07/17 11:32:57;;;;;;;2.45;1.77;;;27.10;99.30;;;;;;5114883;28;20030;-74
2023/07/17 11:35:44;;;;;;;3.78;1.73;;;27.20;99.20;;;;;;5096470;28;20019;-74
2023/07/17 11:38:12;;;;;;;4.90;1.65;;;27.20;99.60;;;;;;5096004;28;20382;-74
2023/07/17 11:40:51;;;;;;;3.22;1.65;;;27.40;99.90;;;;;;5114761;28;20046;-74
2023/07/17 11:43:28;;;;;;;2.80;1.60;;;27.50;98.60;;;;;;5114613;28;20096;-74
2023/07/17 11:46:02;;;;;;;2.90;1.52;;;27.70;99.10;;;;;;5114680;28;20012;-74
2023/07/17 11:48:31;;;;;;;2.42;1.55;;;27.70;99.20;;;;;;5101876;27;20084;-74
2023/07/17 11:50:58;;;;;;;2.47;1.70;;;27.80;98.80;;;;;;5134894;27;20377;-74
2023/07/17 11:53:24;;;;;;;2.08;1.63;;;27.90;98.70;;;;;;5133451;27;20468;-74
2023/07/17 11:55:50;;;;;;;2.33;1.50;;;27.90;96.70;;;;;;5133218;27;20026;-74
2023/07/17 11:58:18;;;;;;;2.80;1.80;;;27.90;97.30;;;;;;5134438;27;20036;-74
2023/07/17 12:00:46;;;;;;;2.70;1.60;;;28.00;97.30;;;;;;5133297;27;20047;-74
2023/07/17 12:03:12;;;;;;;2.60;1.70;;;28.10;96.00;;;;;;5133225;27;20393;-74
2023/07/17 12:05:39;;;;;;;2.75;1.65;;;28.20;96.20;;;;;;5134914;27;20023;-74
2023/07/17 12:08:06;;;;;;;3.42;1.60;;;28.30;96.50;;;;;;5116608;27;20096;-74
2023/07/17 12:10:33;;;;;;;2.30;1.67;;;28.30;95.70;;;;;;5134997;27;20110;-74
2023/07/17 12:12:59;;;;;;;2.45;1.90;;;28.30;95.70;;;;;;5134590;27;20537;-74
2023/07/17 12:15:26;;;;;;;3.03;1.80;;;28.40;94.50;;;;;;5134731;27;20023;-74
2023/07/17 12:17:52;;;;;;;3.08;1.80;;;28.50;94.80;;;;;;5134830;27;20023;-75
2023/07/17 12:20:20;;;;;;;3.92;2.05;;;28.50;94.40;;;;;;5134640;27;20030;-74
2023/07/17 12:22:50;;;;;;;2.30;1.58;;;28.60;95.30;;;;;;5134516;27;20063;-75
2023/07/17 12:25:16;;;;;;;2.40;1.73;;;28.60;94.80;;;;;;5134645;27;20026;-75
2023/07/17 12:27:42;;;;;;;2.38;1.50;;;28.60;94.10;;;;;;5135067;27;20027;-74
2023/07/17 12:30:09;;;;;;;2.92;1.90;;;28.70;94.10;;;;;;5134561;27;20027;-75
2023/07/17 12:32:36;;;;;;;2.97;2.03;;;28.70;94.00;;;;;;5134594;27;20023;-75
2023/07/17 12:35:02;;;;;;;5.82;1.80;;;28.80;94.50;;;;;;5148515;27;20019;-75
2023/07/17 12:37:30;;;;;;;2.58;1.92;;;28.90;93.80;;;;;;5155166;27;20031;-75
2023/07/17 12:39:56;;;;;;;3.72;1.90;;;29.00;94.10;;;;;;5155154;27;20019;-75
2023/07/17 12:42:22;;;;;;;3.33;2.03;;;29.10;93.30;;;;;;5155097;27;20047;-75
2023/07/17 12:44:48;;;;;;;2.63;2.03;;;29.10;92.50;;;;;;5155115;27;20456;-75
2023/07/17 12:47:13;;;;;;;4.00;2.10;;;29.10;92.80;;;;;;5154758;27;20027;-75